createdAt,value
2018-07-24T00:00:27.002Z,26.4
2018-07-24T00:01:28.190Z,26.4
2018-07-24T00:02:29.362Z,26.4
2018-07-24T00:03:30.600Z,26.4
2018-07-24T00:04:31.781Z,26.4
2018-07-24T00:05:32.979Z,26.4
2018-07-24T00:06:34.158Z,26.4
2018-07-24T00:07:35.375Z,26.4
2018-07-24T00:08:36.587Z,26.4
2018-07-24T00:09:37.756Z,26.3
2018-07-24T00:10:38.959Z,26.3
2018-07-24T00:11:40.142Z,26.3
2018-07-24T00:12:41.298Z,26.3
2018-07-24T00:13:42.475Z,26.3
2018-07-24T00:14:43.652Z,26.3
2018-07-24T00:15:44.892Z,26.3
2018-07-24T00:16:46.071Z,26.3
2018-07-24T00:17:47.251Z,26.3
2018-07-24T00:18:48.427Z,26.3
2018-07-24T00:19:49.591Z,26.2
2018-07-24T00:20:50.802Z,26.2
2018-07-24T00:21:51.973Z,26.2
2018-07-24T00:22:53.143Z,26.2
2018-07-24T00:23:54.336Z,26.2
2018-07-24T00:24:55.549Z,26.2
2018-07-24T00:25:56.780Z,26.2
2018-07-24T00:26:58.020Z,26.1
2018-07-24T00:27:59.217Z,26.1
2018-07-24T00:29:00.419Z,26.1
2018-07-24T00:30:01.740Z,26.1
2018-07-24T00:31:02.999Z,26.1
2018-07-24T00:32:04.262Z,26.1
2018-07-24T00:33:05.390Z,26.1
2018-07-24T00:34:06.562Z,26
2018-07-24T00:35:07.738Z,26.1
2018-07-24T00:36:09.007Z,26.1
2018-07-24T00:37:10.185Z,26
2018-07-24T00:38:11.376Z,26.1
2018-07-24T00:39:12.559Z,26
2018-07-24T00:40:13.725Z,26
2018-07-24T00:41:14.957Z,26
2018-07-24T00:42:16.114Z,26
2018-07-24T00:43:17.281Z,26
2018-07-24T00:44:18.454Z,26.1
2018-07-24T00:45:19.623Z,26
2018-07-24T00:46:20.858Z,26
2018-07-24T00:47:22.062Z,26
2018-07-24T00:48:23.224Z,26
2018-07-24T00:49:24.441Z,26
2018-07-24T00:50:25.615Z,25.9
2018-07-24T00:51:26.832Z,25.9
2018-07-24T00:52:27.998Z,25.9
2018-07-24T00:53:29.160Z,25.9
2018-07-24T00:54:30.336Z,25.9
2018-07-24T00:55:31.495Z,25.9
2018-07-24T00:56:32.685Z,25.9
2018-07-24T00:57:33.868Z,25.9
2018-07-24T00:58:35.040Z,25.9
2018-07-24T00:59:36.223Z,25.9
2018-07-24T01:00:37.416Z,25.8
2018-07-24T01:01:39.405Z,25.7
2018-07-24T01:02:42.254Z,25.8
2018-07-24T01:03:43.452Z,25.8
2018-07-24T01:04:44.629Z,25.8
2018-07-24T01:05:45.803Z,25.8
2018-07-24T01:06:47.008Z,25.9
2018-07-24T01:07:48.232Z,25.9
2018-07-24T01:08:49.429Z,25.8
2018-07-24T01:09:50.614Z,25.8
2018-07-24T01:10:51.776Z,25.8
2018-07-24T01:11:54.002Z,25.8
2018-07-24T01:12:55.171Z,25.8
2018-07-24T01:13:56.340Z,25.8
2018-07-24T01:14:57.516Z,25.8
2018-07-24T01:15:58.708Z,25.8
2018-07-24T01:16:59.933Z,25.8
2018-07-24T01:18:01.115Z,25.7
2018-07-24T01:19:02.347Z,25.7
2018-07-24T01:20:03.543Z,25.7
2018-07-24T01:21:04.719Z,25.7
2018-07-24T01:22:05.997Z,25.7
2018-07-24T01:23:08.430Z,25.6
2018-07-24T01:24:09.718Z,25.7
2018-07-24T01:25:10.905Z,25.6
2018-07-24T01:26:12.074Z,25.6
2018-07-24T01:27:13.332Z,25.6
2018-07-24T01:28:14.504Z,25.6
2018-07-24T01:29:15.670Z,25.6
2018-07-24T01:30:16.858Z,25.6
2018-07-24T01:31:18.333Z,25.5
2018-07-24T01:32:20.154Z,25.6
2018-07-24T01:33:22.299Z,25.5
2018-07-24T01:34:23.464Z,25.6
2018-07-24T01:35:24.633Z,25.6
2018-07-24T01:36:25.804Z,25.6
2018-07-24T01:37:27.011Z,25.6
2018-07-24T01:38:28.229Z,25.6
2018-07-24T01:39:29.664Z,25.6
2018-07-24T01:40:30.859Z,25.6
2018-07-24T01:41:32.284Z,25.5
2018-07-24T01:42:34.500Z,25.5
2018-07-24T01:43:37.901Z,25.5
2018-07-24T01:44:39.119Z,25.5
2018-07-24T01:45:40.287Z,25.5
2018-07-24T01:46:41.484Z,25.5
2018-07-24T01:47:42.895Z,25.5
2018-07-24T01:48:44.080Z,25.5
2018-07-24T01:49:45.265Z,25.5
2018-07-24T01:50:46.459Z,25.5
2018-07-24T01:51:47.663Z,25.5
2018-07-24T01:52:48.912Z,25.5
2018-07-24T01:53:50.088Z,25.5
2018-07-24T01:54:51.258Z,25.5
2018-07-24T01:55:52.430Z,25.5
2018-07-24T01:56:53.610Z,25.4
2018-07-24T01:57:54.827Z,25.5
2018-07-24T01:58:56.017Z,25.4
2018-07-24T01:59:57.248Z,25.4
2018-07-24T02:00:58.450Z,25.4
2018-07-24T02:01:59.636Z,25.4
2018-07-24T02:03:01.037Z,25.4
2018-07-24T02:04:02.254Z,25.4
2018-07-24T02:05:03.469Z,25.4
2018-07-24T02:06:04.661Z,25.4
2018-07-24T02:07:05.864Z,25.4
2018-07-24T02:08:07.094Z,25.3
2018-07-24T02:09:08.293Z,25.4
2018-07-24T02:10:09.471Z,25.4
2018-07-24T02:11:10.659Z,25.3
2018-07-24T02:12:11.848Z,25.3
2018-07-24T02:13:13.091Z,25.3
2018-07-24T02:14:14.297Z,25.3
2018-07-24T02:15:15.500Z,25.3
2018-07-24T02:16:16.683Z,25.3
2018-07-24T02:17:17.896Z,25.3
2018-07-24T02:18:19.132Z,25.3
2018-07-24T02:19:20.333Z,25.3
2018-07-24T02:20:21.590Z,25.3
2018-07-24T02:21:22.781Z,25.3
2018-07-24T02:22:24.289Z,25.2
2018-07-24T02:23:26.596Z,25.2
2018-07-24T02:24:27.791Z,25.2
2018-07-24T02:25:29.000Z,25.2
2018-07-24T02:26:30.208Z,25.2
2018-07-24T02:27:31.400Z,25.2
2018-07-24T02:28:32.610Z,25.2
2018-07-24T02:29:33.825Z,25.2
2018-07-24T02:30:35.024Z,25.2
2018-07-24T02:31:36.213Z,25.2
2018-07-24T02:32:37.392Z,25.2
2018-07-24T02:33:39.700Z,25.2
2018-07-24T02:34:41.284Z,25.2
2018-07-24T02:35:42.476Z,25.2
2018-07-24T02:36:43.658Z,25.2
2018-07-24T02:37:44.887Z,25.2
2018-07-24T02:38:46.147Z,25.1
2018-07-24T02:39:47.362Z,25.1
2018-07-24T02:40:48.586Z,25.1
2018-07-24T02:41:49.917Z,25.1
2018-07-24T02:42:51.208Z,25.1
2018-07-24T02:43:52.451Z,25.1
2018-07-24T02:44:53.676Z,25.1
2018-07-24T02:45:54.857Z,25.1
2018-07-24T02:46:56.317Z,25.1
2018-07-24T02:47:58.818Z,25.1
2018-07-24T02:49:00.071Z,25
2018-07-24T02:50:01.369Z,25
2018-07-24T02:51:02.588Z,25
2018-07-24T02:52:03.796Z,25
2018-07-24T02:53:05.000Z,25
2018-07-24T02:54:08.644Z,25
2018-07-24T02:55:09.826Z,24.9
2018-07-24T02:56:11.060Z,25
2018-07-24T02:57:12.283Z,25
2018-07-24T02:58:13.489Z,24.9
2018-07-24T02:59:14.755Z,25
2018-07-24T03:00:15.924Z,25
2018-07-24T03:01:17.130Z,24.9
2018-07-24T03:02:18.313Z,24.9
2018-07-24T03:03:19.516Z,24.9
2018-07-24T03:04:20.752Z,24.9
2018-07-24T03:05:21.924Z,24.9
2018-07-24T03:06:23.169Z,24.9
2018-07-24T03:07:24.953Z,24.9
2018-07-24T03:08:26.163Z,24.9
2018-07-24T03:09:27.380Z,24.9
2018-07-24T03:10:28.846Z,25
2018-07-24T03:11:30.261Z,24.9
2018-07-24T03:12:31.467Z,24.9
2018-07-24T03:13:35.013Z,24.9
2018-07-24T03:14:36.265Z,24.9
2018-07-24T03:15:41.859Z,24.9
2018-07-24T03:16:43.061Z,24.9
2018-07-24T03:17:44.261Z,24.8
2018-07-24T03:18:45.673Z,24.8
2018-07-24T03:19:47.419Z,24.9
2018-07-24T03:20:48.686Z,24.9
2018-07-24T03:21:49.928Z,24.8
2018-07-24T03:22:51.158Z,24.8
2018-07-24T03:23:52.333Z,24.8
2018-07-24T03:24:53.563Z,24.8
2018-07-24T03:25:54.766Z,24.8
2018-07-24T03:26:55.998Z,24.8
2018-07-24T03:27:57.212Z,24.8
2018-07-24T03:28:58.444Z,24.8
2018-07-24T03:29:59.703Z,24.8
2018-07-24T03:31:00.888Z,24.8
2018-07-24T03:32:02.104Z,24.8
2018-07-24T03:33:03.616Z,24.8
2018-07-24T03:34:04.820Z,24.8
2018-07-24T03:35:06.108Z,24.8
2018-07-24T03:36:07.604Z,24.7
2018-07-24T03:37:09.923Z,24.7
2018-07-24T03:38:11.140Z,24.7
2018-07-24T03:39:12.608Z,24.7
2018-07-24T03:40:13.852Z,24.7
2018-07-24T03:41:15.381Z,24.8
2018-07-24T03:42:17.905Z,24.8
2018-07-24T03:43:19.208Z,24.7
2018-07-24T03:44:20.407Z,24.7
2018-07-24T03:45:23.996Z,24.7
2018-07-24T03:46:25.198Z,24.7
2018-07-24T03:47:26.435Z,24.7
2018-07-24T03:48:27.664Z,24.7
2018-07-24T03:49:28.919Z,24.7
2018-07-24T03:50:30.257Z,24.7
2018-07-24T03:51:31.473Z,24.7
2018-07-24T03:52:33.117Z,24.7
2018-07-24T03:53:34.936Z,24.7
2018-07-24T03:54:36.129Z,24.7
2018-07-24T03:55:37.358Z,24.7
2018-07-24T03:56:38.603Z,24.7
2018-07-24T03:57:42.024Z,24.7
2018-07-24T03:58:43.241Z,24.7
2018-07-24T03:59:44.453Z,24.7
2018-07-24T04:00:45.697Z,24.7
2018-07-24T04:01:46.949Z,24.7
2018-07-24T04:02:48.168Z,24.7
2018-07-24T04:03:49.381Z,24.7
2018-07-24T04:04:50.587Z,24.7
2018-07-24T04:05:51.846Z,24.7
2018-07-24T04:06:53.023Z,24.7
2018-07-24T04:07:54.226Z,24.7
2018-07-24T04:08:55.422Z,24.7
2018-07-24T04:09:56.605Z,24.8
2018-07-24T04:10:57.816Z,24.8
2018-07-24T04:11:59.054Z,24.8
2018-07-24T04:13:00.302Z,24.8
2018-07-24T04:14:01.475Z,24.8
2018-07-24T04:15:02.684Z,24.8
2018-07-24T04:16:04.127Z,24.8
2018-07-24T04:17:06.184Z,24.8
2018-07-24T04:18:07.550Z,24.8
2018-07-24T04:19:08.944Z,24.8
2018-07-24T04:20:10.139Z,24.8
2018-07-24T04:21:11.382Z,24.9
2018-07-24T04:22:12.567Z,24.9
2018-07-24T04:23:13.765Z,24.9
2018-07-24T04:24:14.987Z,25
2018-07-24T04:25:16.184Z,25
2018-07-24T04:26:17.422Z,25
2018-07-24T04:27:18.647Z,25.1
2018-07-24T04:28:19.888Z,25.1
2018-07-24T04:29:21.104Z,25.1
2018-07-24T04:30:22.291Z,25.2
2018-07-24T04:31:23.527Z,25.2
2018-07-24T04:32:24.740Z,25.3
2018-07-24T04:33:25.933Z,25.3
2018-07-24T04:34:27.171Z,25.3
2018-07-24T04:35:28.405Z,25.3
2018-07-24T04:36:29.666Z,25.4
2018-07-24T04:37:30.903Z,25.5
2018-07-24T04:38:34.523Z,25.5
2018-07-24T04:39:38.192Z,25.6
2018-07-24T04:40:40.392Z,25.6
2018-07-24T04:41:41.640Z,25.7
2018-07-24T04:42:42.815Z,25.8
2018-07-24T04:43:47.040Z,25.8
2018-07-24T04:44:48.267Z,25.9
2018-07-24T04:45:49.542Z,25.9
2018-07-24T04:46:50.781Z,26
2018-07-24T04:47:51.986Z,26.1
2018-07-24T04:48:53.239Z,26.1
2018-07-24T04:49:54.512Z,26.2
2018-07-24T04:50:55.686Z,26.2
2018-07-24T04:51:57.691Z,26.3
2018-07-24T04:52:59.709Z,26.4
2018-07-24T04:54:00.896Z,26.5
2018-07-24T04:55:02.072Z,26.5
2018-07-24T04:56:03.284Z,26.6
2018-07-24T04:57:04.513Z,26.7
2018-07-24T04:58:05.704Z,26.7
2018-07-24T04:59:06.912Z,26.8
2018-07-24T05:00:08.117Z,26.9
2018-07-24T05:01:09.549Z,27
2018-07-24T05:02:10.867Z,27
2018-07-24T05:03:12.155Z,27.1
2018-07-24T05:04:13.318Z,27.2
2018-07-24T05:05:14.508Z,27.2
2018-07-24T05:06:15.736Z,27.3
2018-07-24T05:07:18.012Z,27.4
2018-07-24T05:08:19.186Z,27.4
2018-07-24T05:09:20.438Z,27.5
2018-07-24T05:10:21.666Z,27.5
2018-07-24T05:11:22.793Z,27.6
2018-07-24T05:12:24.023Z,27.7
2018-07-24T05:13:25.214Z,27.7
2018-07-24T05:14:26.420Z,27.7
2018-07-24T05:15:27.647Z,27.8
2018-07-24T05:16:28.844Z,27.9
2018-07-24T05:17:30.086Z,27.9
2018-07-24T05:18:31.289Z,28
2018-07-24T05:19:32.515Z,28.1
2018-07-24T05:20:34.720Z,28.1
2018-07-24T05:21:35.924Z,28.2
2018-07-24T05:22:37.183Z,28.3
2018-07-24T05:23:38.373Z,28.3
2018-07-24T05:24:39.601Z,28.4
2018-07-24T05:25:40.803Z,28.4
2018-07-24T05:26:41.983Z,28.5
2018-07-24T05:27:43.196Z,28.5
2018-07-24T05:28:44.425Z,28.6
2018-07-24T05:29:45.850Z,28.7
2018-07-24T05:30:47.196Z,28.8
2018-07-24T05:31:48.400Z,28.8
2018-07-24T05:32:49.690Z,28.9
2018-07-24T05:33:51.037Z,29
2018-07-24T05:34:52.214Z,29.1
2018-07-24T05:35:53.393Z,29.1
2018-07-24T05:36:55.842Z,29.2
2018-07-24T05:37:57.718Z,29.2
2018-07-24T05:38:59.262Z,29.4
2018-07-24T05:40:00.659Z,29.4
2018-07-24T05:41:01.912Z,29.4
2018-07-24T05:42:03.274Z,29.6
2018-07-24T05:43:05.746Z,29.7
2018-07-24T05:44:08.045Z,29.7
2018-07-24T05:45:09.587Z,29.8
2018-07-24T05:46:10.831Z,29.9
2018-07-24T05:47:12.071Z,30
2018-07-24T05:48:13.270Z,30
2018-07-24T05:49:14.459Z,30.1
2018-07-24T05:50:15.657Z,30.2
2018-07-24T05:51:16.873Z,30.3
2018-07-24T05:52:18.104Z,30.4
2018-07-24T05:53:19.509Z,30.5
2018-07-24T05:54:20.787Z,30.6
2018-07-24T05:55:21.982Z,30.6
2018-07-24T05:56:23.386Z,30.7
2018-07-24T05:57:24.588Z,30.8
2018-07-24T05:58:25.851Z,30.9
2018-07-24T05:59:34.299Z,31
2018-07-24T06:00:35.580Z,31.1
2018-07-24T06:01:36.787Z,31.3
2018-07-24T06:02:38.045Z,31.3
2018-07-24T06:03:39.483Z,31.4
2018-07-24T06:04:40.786Z,31.5
2018-07-24T06:05:42.010Z,31.6
2018-07-24T06:06:43.207Z,31.7
2018-07-24T06:07:51.204Z,31.7
2018-07-24T06:08:52.435Z,31.8
2018-07-24T06:09:54.235Z,31.9
2018-07-24T06:10:56.449Z,31.9
2018-07-24T06:11:57.724Z,32
2018-07-24T06:12:58.948Z,32
2018-07-24T06:14:00.345Z,32.1
2018-07-24T06:15:01.570Z,32.1
2018-07-24T06:16:02.752Z,32.2
2018-07-24T06:17:04.939Z,32.2
2018-07-24T06:18:06.033Z,32.3
2018-07-24T06:19:07.263Z,32.4
2018-07-24T06:20:08.467Z,32.5
2018-07-24T06:21:09.707Z,32.5
2018-07-24T06:22:11.003Z,32.5
2018-07-24T06:23:12.248Z,32.6
2018-07-24T06:24:13.750Z,32.7
2018-07-24T06:25:14.912Z,32.7
2018-07-24T06:26:16.119Z,32.8
2018-07-24T06:27:17.324Z,32.8
2018-07-24T06:28:18.516Z,32.9
2018-07-24T06:29:19.823Z,33
2018-07-24T06:30:21.059Z,33
2018-07-24T06:31:22.365Z,33.1
2018-07-24T06:32:23.591Z,33.2
2018-07-24T06:33:24.788Z,33.2
2018-07-24T06:34:26.057Z,33.2
2018-07-24T06:35:27.279Z,33.2
2018-07-24T06:36:28.482Z,33.2
2018-07-24T06:37:29.687Z,33.3
2018-07-24T06:38:31.023Z,33.5
2018-07-24T06:39:32.322Z,33.5
2018-07-24T06:40:33.482Z,33.5
2018-07-24T06:41:34.709Z,33.6
2018-07-24T06:42:35.955Z,33.7
2018-07-24T06:43:39.507Z,33.7
2018-07-24T06:44:41.198Z,33.8
2018-07-24T06:45:42.369Z,33.9
2018-07-24T06:46:43.596Z,34.1
2018-07-24T06:47:44.845Z,34.1
2018-07-24T06:48:46.086Z,34.1
2018-07-24T06:49:47.395Z,34.1
2018-07-24T06:50:48.599Z,34.2
2018-07-24T06:51:49.852Z,34.3
2018-07-24T06:52:53.279Z,34.4
2018-07-24T06:53:54.683Z,34.5
2018-07-24T06:54:55.935Z,34.5
2018-07-24T06:55:57.339Z,34.6
2018-07-24T06:56:58.539Z,34.5
2018-07-24T06:57:59.744Z,34.6
2018-07-24T06:59:01.065Z,34.7
2018-07-24T07:00:02.289Z,34.7
2018-07-24T07:01:04.508Z,34.8
2018-07-24T07:02:05.916Z,34.8
2018-07-24T07:03:07.134Z,34.8
2018-07-24T07:04:08.383Z,35
2018-07-24T07:05:09.710Z,35
2018-07-24T07:06:10.971Z,35
2018-07-24T07:07:14.352Z,35.1
2018-07-24T07:08:16.580Z,35.2
2018-07-24T07:09:17.809Z,35.1
2018-07-24T07:10:19.122Z,35.2
2018-07-24T07:11:22.637Z,35.2
2018-07-24T07:12:26.194Z,35.3
2018-07-24T07:13:27.465Z,35.4
2018-07-24T07:14:37.220Z,35.4
2018-07-24T07:15:39.464Z,35.5
2018-07-24T07:16:40.714Z,35.5
2018-07-24T07:17:42.352Z,35.5
2018-07-24T07:18:43.571Z,35.5
2018-07-24T07:19:44.752Z,35.6
2018-07-24T07:20:45.964Z,35.7
2018-07-24T07:21:47.263Z,35.7
2018-07-24T07:22:48.457Z,35.8
2018-07-24T07:23:49.640Z,35.8
2018-07-24T07:24:50.880Z,35.8
2018-07-24T07:25:54.348Z,35.8
2018-07-24T07:26:55.537Z,35.9
2018-07-24T07:27:56.855Z,35.8
2018-07-24T07:28:58.315Z,35.8
2018-07-24T07:29:59.489Z,35.9
2018-07-24T07:31:00.818Z,35.9
2018-07-24T07:32:04.487Z,36
2018-07-24T07:33:08.184Z,36.1
2018-07-24T07:34:09.416Z,36.1
2018-07-24T07:35:12.704Z,36.1
2018-07-24T07:36:14.141Z,36.2
2018-07-24T07:37:15.534Z,36.1
2018-07-24T07:38:16.780Z,36.2
2018-07-24T07:39:33.453Z,36.2
2018-07-24T07:40:34.664Z,36.2
2018-07-24T07:41:35.932Z,36.2
2018-07-24T07:42:38.500Z,36.3
2018-07-24T07:43:41.899Z,36.4
2018-07-24T07:44:43.260Z,36.5
2018-07-24T07:45:44.444Z,36.4
2018-07-24T07:46:50.555Z,36.5
2018-07-24T07:47:51.961Z,36.4
2018-07-24T07:48:53.167Z,36.5
2018-07-24T07:49:54.377Z,36.4
2018-07-24T07:50:55.636Z,36.5
2018-07-24T07:51:56.935Z,36.6
2018-07-24T07:52:58.215Z,36.5
2018-07-24T07:53:59.410Z,36.6
2018-07-24T07:55:00.604Z,36.6
2018-07-24T07:56:01.925Z,36.6
2018-07-24T07:57:03.210Z,36.7
2018-07-24T07:58:04.452Z,36.7
2018-07-24T07:59:05.853Z,36.6
2018-07-24T08:00:09.996Z,36.7
2018-07-24T08:01:11.251Z,36.8
2018-07-24T08:02:12.588Z,36.8
2018-07-24T08:03:13.824Z,36.9
2018-07-24T08:04:18.892Z,36.9
2018-07-24T08:05:20.353Z,37
2018-07-24T08:06:24.924Z,36.9
2018-07-24T08:07:26.264Z,36.9
2018-07-24T08:08:27.469Z,37
2018-07-24T08:09:28.673Z,37
2018-07-24T08:10:29.866Z,37
2018-07-24T08:11:31.691Z,37.1
2018-07-24T08:12:32.983Z,37
2018-07-24T08:13:34.375Z,37
2018-07-24T08:14:35.821Z,37.2
2018-07-24T08:15:37.107Z,37.2
2018-07-24T08:16:38.312Z,37.2
2018-07-24T08:17:40.046Z,37.2
2018-07-24T08:18:41.289Z,37.2
2018-07-24T08:19:42.535Z,37.3
2018-07-24T08:20:43.815Z,37.2
2018-07-24T08:21:45.388Z,37.3
2018-07-24T08:22:46.645Z,37.3
2018-07-24T08:23:48.119Z,37.3
2018-07-24T08:24:49.528Z,37.3
2018-07-24T08:25:50.730Z,37.3
2018-07-24T08:26:52.284Z,37.4
2018-07-24T08:27:54.787Z,37.4
2018-07-24T08:28:55.980Z,37.4
2018-07-24T08:29:57.273Z,37.5
2018-07-24T08:30:58.544Z,37.4
2018-07-24T08:32:03.540Z,37.4
2018-07-24T08:33:04.823Z,37.4
2018-07-24T08:34:06.051Z,37.5
2018-07-24T08:35:07.355Z,37.6
2018-07-24T08:36:14.230Z,37.7
2018-07-24T08:37:15.470Z,37.7
2018-07-24T08:38:19.087Z,37.6
2018-07-24T08:39:20.439Z,37.6
2018-07-24T08:40:21.884Z,37.6
2018-07-24T08:41:25.576Z,37.6
2018-07-24T08:42:31.613Z,37.7
2018-07-24T08:43:32.967Z,37.6
2018-07-24T08:44:36.487Z,37.6
2018-07-24T08:45:40.380Z,37.5
2018-07-24T08:46:41.772Z,37.5
2018-07-24T08:47:42.961Z,37.5
2018-07-24T08:48:44.236Z,37.6
2018-07-24T08:51:08.896Z,37.6
2018-07-24T08:52:10.146Z,37.6
2018-07-24T08:53:12.493Z,37.6
2018-07-24T08:54:16.249Z,37.7
2018-07-24T08:55:17.718Z,37.6
2018-07-24T08:56:18.612Z,37.7
2018-07-24T08:57:20.104Z,37.8
2018-07-24T08:58:21.427Z,37.7
2018-07-24T08:59:22.759Z,37.8
2018-07-24T09:00:24.018Z,37.8
2018-07-24T09:01:25.572Z,37.7
2018-07-24T09:02:33.885Z,37.8
2018-07-24T09:03:35.426Z,37.8
2018-07-24T09:04:38.024Z,37.7
2018-07-24T09:05:41.471Z,37.7
2018-07-24T09:06:42.685Z,37.8
2018-07-24T09:07:43.957Z,37.7
2018-07-24T09:08:45.266Z,37.7
2018-07-24T09:09:48.240Z,37.8
2018-07-24T09:10:49.539Z,37.8
2018-07-24T09:11:51.818Z,37.6
2018-07-24T09:12:53.268Z,37.5
2018-07-24T09:13:55.492Z,37.4
2018-07-24T09:14:56.979Z,37.5
2018-07-24T09:15:58.272Z,37.6
2018-07-24T09:16:59.503Z,37.5
2018-07-24T09:18:02.186Z,37.6
2018-07-24T09:19:03.420Z,37.6
2018-07-24T09:20:07.868Z,37.7
2018-07-24T09:21:09.123Z,37.6
2018-07-24T09:22:10.626Z,37.6
2018-07-24T09:23:13.200Z,37.6
2018-07-24T09:24:14.727Z,37.6
2018-07-24T09:25:15.998Z,37.6
2018-07-24T09:26:17.246Z,37.5
2018-07-24T09:27:18.737Z,37.6
2018-07-24T09:28:19.953Z,37.7
2018-07-24T09:29:25.386Z,37.7
2018-07-24T09:30:26.661Z,37.6
2018-07-24T09:31:28.230Z,37.4
2018-07-24T09:32:29.670Z,37.4
2018-07-24T09:33:30.908Z,37.4
2018-07-24T09:34:32.187Z,37.5
2018-07-24T09:35:33.462Z,37.4
2018-07-24T09:36:34.675Z,37.4
2018-07-24T09:37:35.969Z,37.5
2018-07-24T09:38:37.180Z,37.4
2018-07-24T09:39:38.423Z,37.4
2018-07-24T09:40:39.667Z,37.4
2018-07-24T09:41:40.940Z,37.3
2018-07-24T09:42:42.244Z,37.2
2018-07-24T09:43:43.488Z,37.3
2018-07-24T09:44:44.876Z,37.3
2018-07-24T09:45:47.264Z,37.3
2018-07-24T09:46:48.505Z,37.3
2018-07-24T09:47:49.732Z,37.3
2018-07-24T09:48:50.935Z,37.3
2018-07-24T09:49:52.208Z,37.2
2018-07-24T09:50:53.477Z,37.2
2018-07-24T09:51:54.704Z,37.2
2018-07-24T09:52:56.128Z,37.2
2018-07-24T09:53:57.344Z,37.2
2018-07-24T09:54:58.627Z,37.2
2018-07-24T09:56:02.149Z,37.1
2018-07-24T09:57:03.343Z,37.1
2018-07-24T09:58:04.691Z,37.1
2018-07-24T09:59:06.282Z,37
2018-07-24T10:00:11.783Z,37
2018-07-24T10:01:14.385Z,37.1
2018-07-24T10:02:15.740Z,37.1
2018-07-24T10:03:17.237Z,37
2018-07-24T10:04:18.462Z,37.1
2018-07-24T10:05:19.793Z,37
2018-07-24T10:06:21.043Z,37
2018-07-24T10:07:23.351Z,36.9
2018-07-24T10:08:24.761Z,36.9
2018-07-24T10:09:27.136Z,36.9
2018-07-24T10:10:28.395Z,36.9
2018-07-24T10:11:32.063Z,36.9
2018-07-24T10:12:33.296Z,36.9
2018-07-24T10:13:34.512Z,37
2018-07-24T10:14:38.049Z,37.4
2018-07-24T10:15:39.263Z,37.1
2018-07-24T10:16:42.509Z,37
2018-07-24T10:17:43.715Z,36.9
2018-07-24T10:18:46.287Z,36.9
2018-07-24T10:19:47.443Z,36.8
2018-07-24T10:20:48.631Z,36.8
2018-07-24T10:21:52.865Z,36.9
2018-07-24T10:22:54.608Z,36.8
2018-07-24T10:23:55.815Z,37.2
2018-07-24T10:24:57.050Z,37.2
2018-07-24T10:25:58.291Z,37
2018-07-24T10:27:19.273Z,36.8
2018-07-24T10:28:22.766Z,36.8
2018-07-24T10:29:24.568Z,36.7
2018-07-24T10:30:25.864Z,36.7
2018-07-24T10:31:31.649Z,36.7
2018-07-24T10:32:33.005Z,36.6
2018-07-24T10:33:34.216Z,36.5
2018-07-24T10:34:35.767Z,36.4
2018-07-24T10:35:38.103Z,36.5
2018-07-24T10:36:39.639Z,36.4
2018-07-24T10:37:43.691Z,36.4
2018-07-24T10:38:44.926Z,36.4
2018-07-24T10:39:46.419Z,36.4
2018-07-24T10:40:47.699Z,36.5
2018-07-24T10:41:51.390Z,36.3
2018-07-24T10:42:52.890Z,36.3
2018-07-24T10:43:55.322Z,36.5
2018-07-24T10:44:56.593Z,36.3
2018-07-24T10:45:59.953Z,36.4
2018-07-24T10:47:01.521Z,36.5
2018-07-24T10:48:08.307Z,36.4
2018-07-24T10:49:10.829Z,36.3
2018-07-24T10:50:13.058Z,36.5
2018-07-24T10:51:23.106Z,36.5
2018-07-24T10:52:24.394Z,36.3
2018-07-24T10:53:27.995Z,36.2
2018-07-24T10:54:31.901Z,36.3
2018-07-24T10:55:35.329Z,36.3
2018-07-24T10:56:39.372Z,36.2
2018-07-24T10:57:40.692Z,36.1
2018-07-24T10:58:42.036Z,36.1
2018-07-24T10:59:43.265Z,36.1
2018-07-24T11:00:45.543Z,36.2
2018-07-24T11:01:46.828Z,36.5
2018-07-24T11:02:49.405Z,36.4
2018-07-24T11:04:07.606Z,36.2
2018-07-24T11:05:08.980Z,36.1
2018-07-24T11:06:10.269Z,36
2018-07-24T11:07:11.596Z,36
2018-07-24T11:08:12.895Z,36
2018-07-24T11:09:14.351Z,36
2018-07-24T11:10:15.561Z,36
2018-07-24T11:11:16.811Z,36
2018-07-24T11:12:18.267Z,36
2018-07-24T11:13:19.480Z,36
2018-07-24T11:14:21.121Z,35.9
2018-07-24T11:15:23.408Z,35.9
2018-07-24T11:16:24.740Z,35.9
2018-07-24T11:17:26.091Z,35.9
2018-07-24T11:18:27.302Z,35.9
2018-07-24T11:19:28.629Z,35.9
2018-07-24T11:20:29.880Z,35.9
2018-07-24T11:21:31.310Z,35.8
2018-07-24T11:22:32.763Z,35.8
2018-07-24T11:23:33.908Z,35.7
2018-07-24T11:24:37.591Z,35.7
2018-07-24T11:25:39.801Z,35.7
2018-07-24T11:26:41.088Z,35.7
2018-07-24T11:27:43.549Z,35.7
2018-07-24T11:28:44.824Z,35.7
2018-07-24T11:29:49.504Z,35.6
2018-07-24T11:30:50.732Z,35.7
2018-07-24T11:31:51.952Z,35.6
2018-07-24T11:32:53.275Z,35.6
2018-07-24T11:33:54.713Z,35.6
2018-07-24T11:34:57.493Z,35.5
2018-07-24T11:35:59.255Z,35.5
2018-07-24T11:37:00.161Z,35.4
2018-07-24T11:38:01.439Z,35.4
2018-07-24T11:39:04.800Z,35.4
2018-07-24T11:40:06.348Z,35.4
2018-07-24T11:41:07.680Z,35.5
2018-07-24T11:42:17.372Z,35.5
2018-07-24T11:43:19.240Z,35.5
2018-07-24T11:44:20.466Z,35.6
2018-07-24T11:45:23.285Z,35.5
2018-07-24T11:46:25.056Z,35.5
2018-07-24T11:47:26.320Z,35.5
2018-07-24T11:48:27.684Z,35.4
2018-07-24T11:49:28.908Z,35.3
2018-07-24T11:50:30.264Z,35.4
2018-07-24T11:51:34.080Z,35.3
2018-07-24T11:52:35.268Z,35.3
2018-07-24T11:53:45.510Z,35.3
2018-07-24T11:54:49.483Z,35.2
2018-07-24T11:55:51.892Z,35.2
2018-07-24T11:56:57.760Z,35.2
2018-07-24T11:58:03.578Z,35.1
2018-07-24T11:59:09.624Z,35.1
2018-07-24T12:00:11.163Z,35.1
2018-07-24T12:01:12.595Z,35.1
2018-07-24T12:02:13.931Z,35.1
2018-07-24T12:03:15.320Z,35.1
2018-07-24T12:04:16.543Z,35
2018-07-24T12:05:17.807Z,35.1
2018-07-24T12:06:21.405Z,35.1
2018-07-24T12:07:22.807Z,35
2018-07-24T12:08:27.528Z,35.2
2018-07-24T12:09:28.881Z,35.2
2018-07-24T12:10:30.323Z,35.1
2018-07-24T12:11:31.657Z,35.1
2018-07-24T12:12:43.586Z,35.1
2018-07-24T12:13:44.968Z,35.1
2018-07-24T12:14:46.244Z,35
2018-07-24T12:15:47.612Z,35
2018-07-24T12:18:04.730Z,35
2018-07-24T12:19:06.004Z,34.9
2018-07-24T12:20:09.449Z,35
2018-07-24T12:21:11.394Z,35
2018-07-24T12:22:13.161Z,34.9
2018-07-24T12:23:14.513Z,34.9
2018-07-24T12:24:18.295Z,35
2018-07-24T12:25:23.422Z,35
2018-07-24T12:26:24.643Z,35
2018-07-24T12:27:25.917Z,35
2018-07-24T12:28:29.440Z,34.9
2018-07-24T12:29:45.297Z,34.9
2018-07-24T12:30:46.553Z,34.9
2018-07-24T12:31:47.859Z,34.9
2018-07-24T12:32:49.214Z,34.9
2018-07-24T12:33:50.503Z,34.8
2018-07-24T12:34:51.715Z,34.8
2018-07-24T12:35:53.096Z,34.8
2018-07-24T12:36:54.273Z,34.8
2018-07-24T12:37:55.595Z,34.8
2018-07-24T12:38:57.638Z,34.8
2018-07-24T12:39:58.883Z,34.8
2018-07-24T12:41:00.092Z,34.7
2018-07-24T12:43:18.250Z,34.7
2018-07-24T12:44:22.604Z,34.7
2018-07-24T12:45:23.866Z,34.7
2018-07-24T12:46:27.273Z,34.7
2018-07-24T12:47:29.505Z,34.7
2018-07-24T12:48:30.769Z,34.5
2018-07-24T12:49:33.286Z,34.4
2018-07-24T12:50:34.504Z,34.5
2018-07-24T12:51:37.594Z,34.5
2018-07-24T12:52:47.961Z,34.6
2018-07-24T12:53:50.770Z,34.6
2018-07-24T12:54:51.968Z,34.6
2018-07-24T12:55:55.600Z,34.6
2018-07-24T12:56:57.900Z,34.7
2018-07-24T12:58:01.608Z,34.7
2018-07-24T12:59:08.872Z,34.6
2018-07-24T13:00:12.696Z,34.6
2018-07-24T13:01:16.111Z,34.6
2018-07-24T13:02:19.125Z,34.5
2018-07-24T13:03:20.614Z,34.6
2018-07-24T13:04:21.864Z,34.5
2018-07-24T13:05:25.136Z,34.6
2018-07-24T13:06:26.349Z,34.6
2018-07-24T13:07:27.892Z,34.6
2018-07-24T13:08:29.256Z,34.5
2018-07-24T13:09:30.733Z,34.5
2018-07-24T13:10:32.661Z,34.5
2018-07-24T13:11:33.941Z,34.5
2018-07-24T13:12:35.176Z,34.5
2018-07-24T13:13:55.118Z,34.5
2018-07-24T13:14:56.396Z,34.5
2018-07-24T13:15:57.629Z,34.5
2018-07-24T13:17:02.241Z,34.5
2018-07-24T13:18:11.642Z,34.5
2018-07-24T13:19:13.372Z,34.5
2018-07-24T13:20:14.632Z,34.5
2018-07-24T13:21:17.865Z,34.4
2018-07-24T13:22:19.483Z,34.4
2018-07-24T13:23:20.705Z,34.3
2018-07-24T13:24:21.935Z,34.4
2018-07-24T13:25:23.300Z,34.4
2018-07-24T13:26:26.732Z,34.4
2018-07-24T13:27:29.221Z,34.3
2018-07-24T13:28:30.742Z,34.3
2018-07-24T13:29:32.269Z,34.3
2018-07-24T13:30:37.310Z,34.3
2018-07-24T13:31:38.556Z,34.3
2018-07-24T13:32:40.261Z,34.3
2018-07-24T13:33:41.625Z,34.3
2018-07-24T13:34:44.895Z,34.3
2018-07-24T13:35:48.584Z,34.3
2018-07-24T13:36:49.799Z,34.3
2018-07-24T13:37:56.131Z,34.3
2018-07-24T13:38:59.917Z,34.3
2018-07-24T13:40:02.685Z,34.3
2018-07-24T13:42:36.454Z,34.3
2018-07-24T13:43:42.344Z,34.3
2018-07-24T13:44:46.679Z,34.4
2018-07-24T13:45:47.897Z,34.4
2018-07-24T13:46:49.165Z,34.3
2018-07-24T13:47:50.371Z,34.3
2018-07-24T13:48:51.827Z,34.3
2018-07-24T13:49:57.362Z,34.2
2018-07-24T13:50:58.576Z,34.2
2018-07-24T13:51:59.966Z,34.2
2018-07-24T13:53:01.185Z,34.3
2018-07-24T13:54:03.647Z,34.2